sensor_id;sensor_type;location;lat;lon;timestamp;P1;durP1;ratioP1;P2;durP2;ratioP2
61471;SDS011;47337;54.068;12.114;2023-02-28T00:02:20;12.23;;;5.82;;
61471;SDS011;47337;54.068;12.114;2023-02-28T00:04:46;8.63;;;5.55;;
61471;SDS011;47337;54.068;12.114;2023-02-28T00:07:17;11.05;;;7.05;;
61471;SDS011;47337;54.068;12.114;2023-02-28T00:09:46;11.98;;;7.10;;
61471;SDS011;47337;54.068;12.114;2023-02-28T00:12:11;12.25;;;6.20;;
61471;SDS011;47337;54.068;12.114;2023-02-28T00:14:37;11.80;;;6.43;;
61471;SDS011;47337;54.068;12.114;2023-02-28T00:17:02;12.23;;;6.35;;
61471;SDS011;47337;54.068;12.114;2023-02-28T00:19:28;10.00;;;5.85;;
61471;SDS011;47337;54.068;12.114;2023-02-28T00:21:53;12.85;;;5.88;;
61471;SDS011;47337;54.068;12.114;2023-02-28T00:24:18;13.63;;;6.82;;
61471;SDS011;47337;54.068;12.114;2023-02-28T00:26:44;15.32;;;6.05;;
61471;SDS011;47337;54.068;12.114;2023-02-28T00:29:09;14.40;;;6.32;;
61471;SDS011;47337;54.068;12.114;2023-02-28T00:31:35;9.00;;;6.20;;
61471;SDS011;47337;54.068;12.114;2023-02-28T00:34:00;13.00;;;6.18;;
61471;SDS011;47337;54.068;12.114;2023-02-28T00:36:30;10.65;;;6.65;;
61471;SDS011;47337;54.068;12.114;2023-02-28T00:38:55;11.70;;;6.50;;
61471;SDS011;47337;54.068;12.114;2023-02-28T00:41:23;12.88;;;6.45;;
61471;SDS011;47337;54.068;12.114;2023-02-28T00:43:52;9.27;;;6.15;;
61471;SDS011;47337;54.068;12.114;2023-02-28T00:46:17;12.23;;;5.90;;
61471;SDS011;47337;54.068;12.114;2023-02-28T00:48:42;10.13;;;6.07;;
61471;SDS011;47337;54.068;12.114;2023-02-28T00:51:08;11.50;;;6.18;;
61471;SDS011;47337;54.068;12.114;2023-02-28T00:53:33;11.52;;;6.28;;
61471;SDS011;47337;54.068;12.114;2023-02-28T00:55:59;10.30;;;6.25;;
61471;SDS011;47337;54.068;12.114;2023-02-28T00:58:25;12.57;;;6.93;;
61471;SDS011;47337;54.068;12.114;2023-02-28T01:00:51;15.95;;;6.43;;
61471;SDS011;47337;54.068;12.114;2023-02-28T01:03:20;10.73;;;6.07;;
61471;SDS011;47337;54.068;12.114;2023-02-28T01:05:51;10.30;;;5.95;;
61471;SDS011;47337;54.068;12.114;2023-02-28T01:08:18;13.88;;;6.45;;
61471;SDS011;47337;54.068;12.114;2023-02-28T01:10:43;11.80;;;6.93;;
61471;SDS011;47337;54.068;12.114;2023-02-28T01:13:09;13.48;;;5.68;;
61471;SDS011;47337;54.068;12.114;2023-02-28T01:15:35;10.48;;;6.10;;
61471;SDS011;47337;54.068;12.114;2023-02-28T01:18:03;11.45;;;5.93;;
61471;SDS011;47337;54.068;12.114;2023-02-28T01:20:28;15.23;;;6.53;;
61471;SDS011;47337;54.068;12.114;2023-02-28T01:22:54;12.88;;;5.80;;
61471;SDS011;47337;54.068;12.114;2023-02-28T01:25:19;12.35;;;6.00;;
61471;SDS011;47337;54.068;12.114;2023-02-28T01:27:45;14.63;;;6.65;;
61471;SDS011;47337;54.068;12.114;2023-02-28T01:30:10;12.20;;;5.72;;
61471;SDS011;47337;54.068;12.114;2023-02-28T01:32:36;13.05;;;6.43;;
61471;SDS011;47337;54.068;12.114;2023-02-28T01:35:01;17.60;;;5.85;;
61471;SDS011;47337;54.068;12.114;2023-02-28T01:37:30;8.13;;;6.18;;
61471;SDS011;47337;54.068;12.114;2023-02-28T01:39:55;16.83;;;6.75;;
61471;SDS011;47337;54.068;12.114;2023-02-28T01:42:20;12.32;;;6.63;;
61471;SDS011;47337;54.068;12.114;2023-02-28T01:47:36;12.32;;;6.57;;
61471;SDS011;47337;54.068;12.114;2023-02-28T01:50:07;10.40;;;6.28;;
61471;SDS011;47337;54.068;12.114;2023-02-28T01:52:35;13.70;;;6.47;;
61471;SDS011;47337;54.068;12.114;2023-02-28T01:55:06;15.02;;;6.88;;
61471;SDS011;47337;54.068;12.114;2023-02-28T01:57:34;14.65;;;6.95;;
61471;SDS011;47337;54.068;12.114;2023-02-28T02:00:04;12.60;;;7.60;;
61471;SDS011;47337;54.068;12.114;2023-02-28T02:02:42;18.42;;;6.85;;
61471;SDS011;47337;54.068;12.114;2023-02-28T02:05:11;11.25;;;7.57;;
61471;SDS011;47337;54.068;12.114;2023-02-28T02:07:40;12.57;;;7.00;;
61471;SDS011;47337;54.068;12.114;2023-02-28T02:10:20;12.27;;;7.07;;
61471;SDS011;47337;54.068;12.114;2023-02-28T02:18:52;13.00;;;7.05;;
61471;SDS011;47337;54.068;12.114;2023-02-28T02:43:37;15.23;;;7.88;;
61471;SDS011;47337;54.068;12.114;2023-02-28T02:46:17;19.45;;;8.38;;
61471;SDS011;47337;54.068;12.114;2023-02-28T02:48:46;11.45;;;7.40;;
61471;SDS011;47337;54.068;12.114;2023-02-28T02:51:16;17.13;;;8.25;;
61471;SDS011;47337;54.068;12.114;2023-02-28T02:53:50;14.23;;;7.97;;
61471;SDS011;47337;54.068;12.114;2023-02-28T02:56:22;14.45;;;8.98;;
61471;SDS011;47337;54.068;12.114;2023-02-28T02:58:54;18.60;;;9.82;;
61471;SDS011;47337;54.068;12.114;2023-02-28T03:01:24;18.15;;;9.23;;
61471;SDS011;47337;54.068;12.114;2023-02-28T03:03:55;17.52;;;10.40;;
61471;SDS011;47337;54.068;12.114;2023-02-28T03:06:23;17.30;;;9.02;;
61471;SDS011;47337;54.068;12.114;2023-02-28T03:08:49;16.98;;;9.65;;
61471;SDS011;47337;54.068;12.114;2023-02-28T03:11:17;16.08;;;9.00;;
61471;SDS011;47337;54.068;12.114;2023-02-28T03:13:52;15.45;;;9.50;;
61471;SDS011;47337;54.068;12.114;2023-02-28T03:19:29;16.45;;;9.63;;
61471;SDS011;47337;54.068;12.114;2023-02-28T03:27:24;18.13;;;10.77;;
61471;SDS011;47337;54.068;12.114;2023-02-28T03:30:04;15.98;;;9.25;;
61471;SDS011;47337;54.068;12.114;2023-02-28T03:32:33;18.63;;;10.20;;
61471;SDS011;47337;54.068;12.114;2023-02-28T03:35:10;16.85;;;11.00;;
61471;SDS011;47337;54.068;12.114;2023-02-28T03:37:46;17.35;;;9.82;;
61471;SDS011;47337;54.068;12.114;2023-02-28T03:40:16;20.60;;;10.00;;
61471;SDS011;47337;54.068;12.114;2023-02-28T03:42:45;15.75;;;9.52;;
61471;SDS011;47337;54.068;12.114;2023-02-28T03:45:16;18.42;;;10.00;;
61471;SDS011;47337;54.068;12.114;2023-02-28T03:47:53;20.00;;;10.93;;
61471;SDS011;47337;54.068;12.114;2023-02-28T03:50:44;21.42;;;10.73;;
61471;SDS011;47337;54.068;12.114;2023-02-28T03:53:12;24.52;;;10.75;;
61471;SDS011;47337;54.068;12.114;2023-02-28T03:55:47;17.65;;;10.50;;
61471;SDS011;47337;54.068;12.114;2023-02-28T04:01:09;20.98;;;11.30;;
61471;SDS011;47337;54.068;12.114;2023-02-28T04:03:41;23.08;;;11.50;;
61471;SDS011;47337;54.068;12.114;2023-02-28T04:06:07;23.45;;;11.30;;
61471;SDS011;47337;54.068;12.114;2023-02-28T04:08:39;24.58;;;11.55;;
61471;SDS011;47337;54.068;12.114;2023-02-28T04:11:07;16.98;;;10.73;;
61471;SDS011;47337;54.068;12.114;2023-02-28T04:13:38;18.95;;;10.80;;
61471;SDS011;47337;54.068;12.114;2023-02-28T04:16:07;20.77;;;10.65;;
61471;SDS011;47337;54.068;12.114;2023-02-28T04:18:37;21.90;;;12.32;;
61471;SDS011;47337;54.068;12.114;2023-02-28T04:21:11;21.58;;;11.35;;
61471;SDS011;47337;54.068;12.114;2023-02-28T04:23:37;26.35;;;11.98;;
61471;SDS011;47337;54.068;12.114;2023-02-28T04:26:03;18.02;;;11.15;;
61471;SDS011;47337;54.068;12.114;2023-02-28T04:28:31;22.13;;;11.32;;
61471;SDS011;47337;54.068;12.114;2023-02-28T04:30:58;22.63;;;11.68;;
61471;SDS011;47337;54.068;12.114;2023-02-28T04:33:25;20.40;;;11.00;;
61471;SDS011;47337;54.068;12.114;2023-02-28T04:36:12;20.00;;;10.80;;
61471;SDS011;47337;54.068;12.114;2023-02-28T04:38:36;20.02;;;11.77;;
61471;SDS011;47337;54.068;12.114;2023-02-28T04:41:03;20.40;;;11.93;;
61471;SDS011;47337;54.068;12.114;2023-02-28T04:43:29;23.05;;;11.98;;
61471;SDS011;47337;54.068;12.114;2023-02-28T04:45:55;21.25;;;11.95;;
61471;SDS011;47337;54.068;12.114;2023-02-28T04:48:29;24.15;;;11.43;;
61471;SDS011;47337;54.068;12.114;2023-02-28T04:53:25;17.63;;;10.15;;
61471;SDS011;47337;54.068;12.114;2023-02-28T04:55:50;23.58;;;12.82;;
61471;SDS011;47337;54.068;12.114;2023-02-28T04:58:16;22.27;;;11.75;;
61471;SDS011;47337;54.068;12.114;2023-02-28T05:00:41;23.15;;;12.48;;
61471;SDS011;47337;54.068;12.114;2023-02-28T05:03:07;20.30;;;11.15;;
61471;SDS011;47337;54.068;12.114;2023-02-28T05:05:32;26.42;;;11.95;;
61471;SDS011;47337;54.068;12.114;2023-02-28T05:07:58;23.00;;;11.48;;
61471;SDS011;47337;54.068;12.114;2023-02-28T05:10:23;22.65;;;12.15;;
61471;SDS011;47337;54.068;12.114;2023-02-28T05:12:49;22.70;;;12.07;;
61471;SDS011;47337;54.068;12.114;2023-02-28T05:15:14;24.90;;;12.52;;
61471;SDS011;47337;54.068;12.114;2023-02-28T05:17:41;23.77;;;13.20;;
61471;SDS011;47337;54.068;12.114;2023-02-28T05:20:08;25.77;;;12.80;;
61471;SDS011;47337;54.068;12.114;2023-02-28T05:22:38;24.33;;;12.82;;
61471;SDS011;47337;54.068;12.114;2023-02-28T05:25:04;24.13;;;13.52;;
61471;SDS011;47337;54.068;12.114;2023-02-28T05:27:30;22.40;;;12.13;;
61471;SDS011;47337;54.068;12.114;2023-02-28T05:29:56;22.25;;;12.60;;
61471;SDS011;47337;54.068;12.114;2023-02-28T05:32:21;20.60;;;12.00;;
61471;SDS011;47337;54.068;12.114;2023-02-28T05:34:50;23.25;;;13.05;;
61471;SDS011;47337;54.068;12.114;2023-02-28T05:37:15;24.77;;;13.50;;
61471;SDS011;47337;54.068;12.114;2023-02-28T05:39:43;20.73;;;12.13;;
61471;SDS011;47337;54.068;12.114;2023-02-28T05:42:09;23.48;;;12.98;;
61471;SDS011;47337;54.068;12.114;2023-02-28T05:44:34;25.92;;;13.27;;
61471;SDS011;47337;54.068;12.114;2023-02-28T05:47:00;21.98;;;12.30;;
61471;SDS011;47337;54.068;12.114;2023-02-28T05:49:26;26.17;;;12.48;;
61471;SDS011;47337;54.068;12.114;2023-02-28T05:51:54;27.65;;;12.52;;
61471;SDS011;47337;54.068;12.114;2023-02-28T05:54:19;23.98;;;12.23;;
61471;SDS011;47337;54.068;12.114;2023-02-28T05:56:45;24.67;;;12.13;;
61471;SDS011;47337;54.068;12.114;2023-02-28T05:59:11;18.13;;;11.55;;
61471;SDS011;47337;54.068;12.114;2023-02-28T06:01:38;16.73;;;10.60;;
61471;SDS011;47337;54.068;12.114;2023-02-28T06:04:09;21.10;;;11.77;;
61471;SDS011;47337;54.068;12.114;2023-02-28T06:06:39;22.45;;;11.85;;
61471;SDS011;47337;54.068;12.114;2023-02-28T06:09:05;20.63;;;11.50;;
61471;SDS011;47337;54.068;12.114;2023-02-28T06:11:31;20.80;;;12.45;;
61471;SDS011;47337;54.068;12.114;2023-02-28T06:13:58;23.48;;;12.70;;
61471;SDS011;47337;54.068;12.114;2023-02-28T06:16:25;20.73;;;11.88;;
61471;SDS011;47337;54.068;12.114;2023-02-28T06:18:51;25.42;;;11.88;;
61471;SDS011;47337;54.068;12.114;2023-02-28T06:21:17;19.65;;;11.43;;
61471;SDS011;47337;54.068;12.114;2023-02-28T06:23:46;25.23;;;12.65;;
61471;SDS011;47337;54.068;12.114;2023-02-28T06:26:12;26.25;;;12.98;;
61471;SDS011;47337;54.068;12.114;2023-02-28T06:28:37;20.70;;;11.80;;
61471;SDS011;47337;54.068;12.114;2023-02-28T06:31:11;25.42;;;11.93;;
61471;SDS011;47337;54.068;12.114;2023-02-28T06:33:41;24.23;;;13.15;;
61471;SDS011;47337;54.068;12.114;2023-02-28T06:36:08;23.92;;;12.77;;
61471;SDS011;47337;54.068;12.114;2023-02-28T06:38:34;25.38;;;13.23;;
61471;SDS011;47337;54.068;12.114;2023-02-28T06:41:00;25.45;;;13.70;;
61471;SDS011;47337;54.068;12.114;2023-02-28T06:43:31;25.17;;;12.70;;
61471;SDS011;47337;54.068;12.114;2023-02-28T06:46:02;23.67;;;11.65;;
61471;SDS011;47337;54.068;12.114;2023-02-28T06:48:33;21.77;;;12.13;;
61471;SDS011;47337;54.068;12.114;2023-02-28T06:51:09;23.17;;;12.85;;
61471;SDS011;47337;54.068;12.114;2023-02-28T06:53:39;27.45;;;12.48;;
61471;SDS011;47337;54.068;12.114;2023-02-28T06:56:06;28.20;;;12.38;;
61471;SDS011;47337;54.068;12.114;2023-02-28T06:58:33;23.77;;;12.30;;
61471;SDS011;47337;54.068;12.114;2023-02-28T07:00:59;22.85;;;12.15;;
61471;SDS011;47337;54.068;12.114;2023-02-28T07:03:27;22.67;;;11.52;;
61471;SDS011;47337;54.068;12.114;2023-02-28T07:05:52;21.98;;;11.80;;
61471;SDS011;47337;54.068;12.114;2023-02-28T07:08:18;20.05;;;11.70;;
61471;SDS011;47337;54.068;12.114;2023-02-28T07:10:43;24.88;;;12.43;;
61471;SDS011;47337;54.068;12.114;2023-02-28T07:13:09;25.60;;;12.20;;
61471;SDS011;47337;54.068;12.114;2023-02-28T07:15:35;24.17;;;11.65;;
61471;SDS011;47337;54.068;12.114;2023-02-28T07:18:01;25.10;;;13.05;;
61471;SDS011;47337;54.068;12.114;2023-02-28T07:20:28;24.85;;;13.88;;
61471;SDS011;47337;54.068;12.114;2023-02-28T07:22:54;26.63;;;13.85;;
61471;SDS011;47337;54.068;12.114;2023-02-28T07:25:23;25.17;;;14.07;;
61471;SDS011;47337;54.068;12.114;2023-02-28T07:27:49;24.60;;;14.35;;
61471;SDS011;47337;54.068;12.114;2023-02-28T07:30:15;22.92;;;14.32;;
61471;SDS011;47337;54.068;12.114;2023-02-28T07:32:41;34.67;;;15.57;;
61471;SDS011;47337;54.068;12.114;2023-02-28T07:35:06;29.48;;;15.63;;
61471;SDS011;47337;54.068;12.114;2023-02-28T07:37:32;29.25;;;14.25;;
61471;SDS011;47337;54.068;12.114;2023-02-28T07:40:02;28.65;;;14.65;;
61471;SDS011;47337;54.068;12.114;2023-02-28T07:42:31;23.95;;;13.38;;
61471;SDS011;47337;54.068;12.114;2023-02-28T07:44:57;29.25;;;14.50;;
61471;SDS011;47337;54.068;12.114;2023-02-28T07:47:24;29.25;;;15.10;;
61471;SDS011;47337;54.068;12.114;2023-02-28T07:49:49;30.88;;;15.38;;
61471;SDS011;47337;54.068;12.114;2023-02-28T07:52:15;23.83;;;13.48;;
61471;SDS011;47337;54.068;12.114;2023-02-28T07:54:43;27.00;;;14.57;;
61471;SDS011;47337;54.068;12.114;2023-02-28T07:57:08;26.55;;;14.13;;
61471;SDS011;47337;54.068;12.114;2023-02-28T07:59:34;24.95;;;14.27;;
61471;SDS011;47337;54.068;12.114;2023-02-28T08:01:59;25.33;;;13.55;;
61471;SDS011;47337;54.068;12.114;2023-02-28T08:04:25;21.52;;;13.25;;
61471;SDS011;47337;54.068;12.114;2023-02-28T08:06:50;20.77;;;13.15;;
61471;SDS011;47337;54.068;12.114;2023-02-28T08:09:18;22.13;;;13.13;;
61471;SDS011;47337;54.068;12.114;2023-02-28T08:11:44;22.92;;;13.10;;
61471;SDS011;47337;54.068;12.114;2023-02-28T08:14:09;21.95;;;12.32;;
61471;SDS011;47337;54.068;12.114;2023-02-28T08:16:37;20.40;;;12.23;;
61471;SDS011;47337;54.068;12.114;2023-02-28T08:19:03;22.55;;;11.85;;
61471;SDS011;47337;54.068;12.114;2023-02-28T08:21:29;17.05;;;11.25;;
61471;SDS011;47337;54.068;12.114;2023-02-28T08:23:54;17.50;;;10.95;;
61471;SDS011;47337;54.068;12.114;2023-02-28T08:26:21;19.08;;;10.98;;
61471;SDS011;47337;54.068;12.114;2023-02-28T08:28:47;17.35;;;9.68;;
61471;SDS011;47337;54.068;12.114;2023-02-28T08:31:16;16.58;;;9.90;;
61471;SDS011;47337;54.068;12.114;2023-02-28T08:33:42;14.55;;;8.85;;
61471;SDS011;47337;54.068;12.114;2023-02-28T08:36:09;15.30;;;9.82;;
61471;SDS011;47337;54.068;12.114;2023-02-28T08:38:38;13.68;;;8.68;;
61471;SDS011;47337;54.068;12.114;2023-02-28T08:41:06;14.90;;;8.30;;
61471;SDS011;47337;54.068;12.114;2023-02-28T08:43:34;13.82;;;8.23;;
61471;SDS011;47337;54.068;12.114;2023-02-28T08:46:00;14.82;;;7.97;;
61471;SDS011;47337;54.068;12.114;2023-02-28T08:48:26;13.75;;;7.95;;
61471;SDS011;47337;54.068;12.114;2023-02-28T08:51:04;13.93;;;7.72;;
61471;SDS011;47337;54.068;12.114;2023-02-28T08:53:32;13.18;;;7.18;;
61471;SDS011;47337;54.068;12.114;2023-02-28T08:58:24;11.45;;;6.85;;
61471;SDS011;47337;54.068;12.114;2023-02-28T09:00:52;11.45;;;6.78;;
61471;SDS011;47337;54.068;12.114;2023-02-28T09:03:18;11.25;;;6.57;;
61471;SDS011;47337;54.068;12.114;2023-02-28T09:05:57;9.85;;;6.93;;
61471;SDS011;47337;54.068;12.114;2023-02-28T09:08:29;8.50;;;5.70;;
61471;SDS011;47337;54.068;12.114;2023-02-28T09:10:57;8.57;;;5.82;;
61471;SDS011;47337;54.068;12.114;2023-02-28T09:13:24;8.60;;;4.90;;
61471;SDS011;47337;54.068;12.114;2023-02-28T09:15:53;9.50;;;5.47;;
61471;SDS011;47337;54.068;12.114;2023-02-28T09:18:22;8.80;;;5.72;;
61471;SDS011;47337;54.068;12.114;2023-02-28T09:20:49;6.82;;;4.50;;
61471;SDS011;47337;54.068;12.114;2023-02-28T09:23:15;11.68;;;5.07;;
61471;SDS011;47337;54.068;12.114;2023-02-28T09:25:45;7.40;;;4.28;;
61471;SDS011;47337;54.068;12.114;2023-02-28T09:28:18;7.35;;;4.30;;
61471;SDS011;47337;54.068;12.114;2023-02-28T09:30:45;11.45;;;4.60;;
61471;SDS011;47337;54.068;12.114;2023-02-28T09:33:16;7.72;;;4.40;;
61471;SDS011;47337;54.068;12.114;2023-02-28T09:35:42;9.52;;;4.10;;
61471;SDS011;47337;54.068;12.114;2023-02-28T09:38:07;8.07;;;4.30;;
61471;SDS011;47337;54.068;12.114;2023-02-28T09:40:35;7.00;;;4.03;;
61471;SDS011;47337;54.068;12.114;2023-02-28T09:43:14;7.10;;;3.80;;
61471;SDS011;47337;54.068;12.114;2023-02-28T09:45:41;9.20;;;4.32;;
61471;SDS011;47337;54.068;12.114;2023-02-28T09:48:14;11.13;;;4.95;;
61471;SDS011;47337;54.068;12.114;2023-02-28T09:50:51;8.40;;;4.35;;
61471;SDS011;47337;54.068;12.114;2023-02-28T09:53:28;5.82;;;3.75;;
61471;SDS011;47337;54.068;12.114;2023-02-28T09:55:59;6.15;;;3.80;;
61471;SDS011;47337;54.068;12.114;2023-02-28T10:01:25;5.35;;;3.53;;
61471;SDS011;47337;54.068;12.114;2023-02-28T10:03:57;6.25;;;4.10;;
61471;SDS011;47337;54.068;12.114;2023-02-28T10:06:29;5.35;;;3.50;;
61471;SDS011;47337;54.068;12.114;2023-02-28T10:09:02;6.32;;;3.35;;
61471;SDS011;47337;54.068;12.114;2023-02-28T10:11:34;4.72;;;2.92;;
61471;SDS011;47337;54.068;12.114;2023-02-28T10:14:06;4.68;;;2.85;;
61471;SDS011;47337;54.068;12.114;2023-02-28T10:19:28;5.93;;;3.45;;
61471;SDS011;47337;54.068;12.114;2023-02-28T10:22:38;8.40;;;3.33;;
61471;SDS011;47337;54.068;12.114;2023-02-28T10:27:52;6.57;;;3.38;;
61471;SDS011;47337;54.068;12.114;2023-02-28T10:30:21;8.20;;;2.85;;
61471;SDS011;47337;54.068;12.114;2023-02-28T10:32:50;6.85;;;2.97;;
61471;SDS011;47337;54.068;12.114;2023-02-28T10:35:22;6.22;;;3.40;;
61471;SDS011;47337;54.068;12.114;2023-02-28T10:38:00;5.93;;;3.38;;
61471;SDS011;47337;54.068;12.114;2023-02-28T10:40:35;4.50;;;2.97;;
61471;SDS011;47337;54.068;12.114;2023-02-28T10:45:38;4.22;;;2.45;;
61471;SDS011;47337;54.068;12.114;2023-02-28T10:55:59;7.47;;;2.50;;
61471;SDS011;47337;54.068;12.114;2023-02-28T10:58:48;6.55;;;2.22;;
61471;SDS011;47337;54.068;12.114;2023-02-28T11:03:46;3.75;;;2.20;;
61471;SDS011;47337;54.068;12.114;2023-02-28T11:06:16;5.55;;;2.30;;
61471;SDS011;47337;54.068;12.114;2023-02-28T11:08:44;4.25;;;1.75;;
61471;SDS011;47337;54.068;12.114;2023-02-28T11:11:12;3.60;;;2.58;;
61471;SDS011;47337;54.068;12.114;2023-02-28T11:13:38;3.00;;;1.80;;
61471;SDS011;47337;54.068;12.114;2023-02-28T11:16:04;2.72;;;1.38;;
61471;SDS011;47337;54.068;12.114;2023-02-28T11:21:19;2.35;;;1.15;;
61471;SDS011;47337;54.068;12.114;2023-02-28T11:23:49;2.03;;;1.33;;
61471;SDS011;47337;54.068;12.114;2023-02-28T11:26:35;3.65;;;1.50;;
61471;SDS011;47337;54.068;12.114;2023-02-28T11:29:18;2.78;;;1.17;;
61471;SDS011;47337;54.068;12.114;2023-02-28T11:31:49;2.90;;;1.33;;
61471;SDS011;47337;54.068;12.114;2023-02-28T11:34:26;2.88;;;1.77;;
61471;SDS011;47337;54.068;12.114;2023-02-28T11:36:53;3.67;;;1.98;;
61471;SDS011;47337;54.068;12.114;2023-02-28T11:39:20;5.00;;;1.92;;
61471;SDS011;47337;54.068;12.114;2023-02-28T11:46:41;4.20;;;2.28;;
61471;SDS011;47337;54.068;12.114;2023-02-28T12:22:30;2.05;;;1.40;;
61471;SDS011;47337;54.068;12.114;2023-02-28T12:27:43;2.72;;;1.33;;
61471;SDS011;47337;54.068;12.114;2023-02-28T12:30:22;4.50;;;1.63;;
61471;SDS011;47337;54.068;12.114;2023-02-28T12:33:09;4.50;;;1.48;;
61471;SDS011;47337;54.068;12.114;2023-02-28T12:35:43;5.80;;;1.55;;
61471;SDS011;47337;54.068;12.114;2023-02-28T12:40:43;3.00;;;1.20;;
61471;SDS011;47337;54.068;12.114;2023-02-28T12:43:16;4.85;;;1.70;;
61471;SDS011;47337;54.068;12.114;2023-02-28T12:46:29;3.65;;;1.73;;
61471;SDS011;47337;54.068;12.114;2023-02-28T12:48:46;3.55;;;1.52;;
61471;SDS011;47337;54.068;12.114;2023-02-28T12:51:20;4.00;;;1.58;;
61471;SDS011;47337;54.068;12.114;2023-02-28T12:54:07;3.35;;;1.42;;
61471;SDS011;47337;54.068;12.114;2023-02-28T13:02:09;2.67;;;1.65;;
61471;SDS011;47337;54.068;12.114;2023-02-28T13:05:06;3.63;;;1.50;;
61471;SDS011;47337;54.068;12.114;2023-02-28T13:10:42;6.13;;;2.08;;
61471;SDS011;47337;54.068;12.114;2023-02-28T13:13:13;4.10;;;1.52;;
61471;SDS011;47337;54.068;12.114;2023-02-28T13:15:41;5.90;;;1.52;;
61471;SDS011;47337;54.068;12.114;2023-02-28T13:18:32;3.30;;;1.38;;
61471;SDS011;47337;54.068;12.114;2023-02-28T13:20:58;2.28;;;1.15;;
61471;SDS011;47337;54.068;12.114;2023-02-28T13:23:39;4.13;;;1.30;;
61471;SDS011;47337;54.068;12.114;2023-02-28T13:34:27;4.20;;;1.27;;
61471;SDS011;47337;54.068;12.114;2023-02-28T13:37:20;3.83;;;1.20;;
61471;SDS011;47337;54.068;12.114;2023-02-28T13:39:53;2.72;;;1.25;;
61471;SDS011;47337;54.068;12.114;2023-02-28T13:42:31;1.38;;;1.02;;
61471;SDS011;47337;54.068;12.114;2023-02-28T13:47:35;3.88;;;1.75;;
61471;SDS011;47337;54.068;12.114;2023-02-28T14:11:42;1.95;;;1.00;;
61471;SDS011;47337;54.068;12.114;2023-02-28T14:14:56;4.45;;;1.15;;
61471;SDS011;47337;54.068;12.114;2023-02-28T14:17:02;1.25;;;0.75;;
61471;SDS011;47337;54.068;12.114;2023-02-28T14:19:32;2.97;;;2.30;;
61471;SDS011;47337;54.068;12.114;2023-02-28T14:25:33;2.05;;;1.05;;
61471;SDS011;47337;54.068;12.114;2023-02-28T14:36:16;2.47;;;1.10;;
61471;SDS011;47337;54.068;12.114;2023-02-28T14:38:51;2.10;;;0.85;;
61471;SDS011;47337;54.068;12.114;2023-02-28T14:41:21;1.40;;;0.88;;
61471;SDS011;47337;54.068;12.114;2023-02-28T14:43:53;1.77;;;0.93;;
61471;SDS011;47337;54.068;12.114;2023-02-28T14:46:37;2.90;;;0.80;;
61471;SDS011;47337;54.068;12.114;2023-02-28T14:49:05;2.53;;;1.13;;
61471;SDS011;47337;54.068;12.114;2023-02-28T14:51:32;1.83;;;1.00;;
61471;SDS011;47337;54.068;12.114;2023-02-28T14:54:00;2.83;;;0.93;;
61471;SDS011;47337;54.068;12.114;2023-02-28T14:56:37;1.08;;;0.80;;
61471;SDS011;47337;54.068;12.114;2023-02-28T14:59:18;2.08;;;0.70;;
61471;SDS011;47337;54.068;12.114;2023-02-28T15:01:49;1.95;;;0.77;;
61471;SDS011;47337;54.068;12.114;2023-02-28T15:04:26;3.47;;;0.80;;
61471;SDS011;47337;54.068;12.114;2023-02-28T15:07:15;1.95;;;0.82;;
61471;SDS011;47337;54.068;12.114;2023-02-28T15:09:40;3.08;;;0.98;;
61471;SDS011;47337;54.068;12.114;2023-02-28T15:12:09;1.42;;;0.75;;
61471;SDS011;47337;54.068;12.114;2023-02-28T15:14:42;1.80;;;0.77;;
61471;SDS011;47337;54.068;12.114;2023-02-28T15:17:11;2.72;;;0.90;;
61471;SDS011;47337;54.068;12.114;2023-02-28T15:19:47;2.25;;;0.70;;
61471;SDS011;47337;54.068;12.114;2023-02-28T15:22:16;1.05;;;0.73;;
61471;SDS011;47337;54.068;12.114;2023-02-28T15:24:46;2.00;;;0.90;;
61471;SDS011;47337;54.068;12.114;2023-02-28T15:27:21;3.00;;;1.25;;
61471;SDS011;47337;54.068;12.114;2023-02-28T15:29:54;2.50;;;0.93;;
61471;SDS011;47337;54.068;12.114;2023-02-28T15:32:38;2.28;;;0.80;;
61471;SDS011;47337;54.068;12.114;2023-02-28T15:37:53;4.88;;;1.35;;
61471;SDS011;47337;54.068;12.114;2023-02-28T15:40:35;1.90;;;0.90;;
61471;SDS011;47337;54.068;12.114;2023-02-28T15:43:15;2.95;;;1.13;;
61471;SDS011;47337;54.068;12.114;2023-02-28T15:45:50;4.28;;;1.00;;
61471;SDS011;47337;54.068;12.114;2023-02-28T15:48:22;1.73;;;0.90;;
61471;SDS011;47337;54.068;12.114;2023-02-28T15:50:53;2.33;;;0.80;;
61471;SDS011;47337;54.068;12.114;2023-02-28T15:53:40;2.08;;;0.88;;
61471;SDS011;47337;54.068;12.114;2023-02-28T15:56:18;3.20;;;0.95;;
61471;SDS011;47337;54.068;12.114;2023-02-28T15:58:50;3.97;;;0.90;;
61471;SDS011;47337;54.068;12.114;2023-02-28T16:03:59;4.07;;;1.13;;
61471;SDS011;47337;54.068;12.114;2023-02-28T16:09:02;2.65;;;1.10;;
61471;SDS011;47337;54.068;12.114;2023-02-28T16:11:33;1.77;;;0.85;;
61471;SDS011;47337;54.068;12.114;2023-02-28T16:14:00;1.73;;;0.88;;
61471;SDS011;47337;54.068;12.114;2023-02-28T16:16:26;4.50;;;1.48;;
61471;SDS011;47337;54.068;12.114;2023-02-28T16:18:51;2.45;;;1.02;;
61471;SDS011;47337;54.068;12.114;2023-02-28T16:21:17;2.25;;;1.05;;
61471;SDS011;47337;54.068;12.114;2023-02-28T16:23:45;1.50;;;1.08;;
61471;SDS011;47337;54.068;12.114;2023-02-28T16:26:16;2.83;;;0.95;;
61471;SDS011;47337;54.068;12.114;2023-02-28T16:28:46;3.10;;;1.00;;
61471;SDS011;47337;54.068;12.114;2023-02-28T16:31:11;4.47;;;1.15;;
61471;SDS011;47337;54.068;12.114;2023-02-28T16:33:41;2.05;;;0.80;;
61471;SDS011;47337;54.068;12.114;2023-02-28T16:36:27;2.92;;;1.10;;
61471;SDS011;47337;54.068;12.114;2023-02-28T16:38:57;3.35;;;0.80;;
61471;SDS011;47337;54.068;12.114;2023-02-28T16:41:24;2.08;;;0.98;;
61471;SDS011;47337;54.068;12.114;2023-02-28T16:43:54;3.25;;;1.23;;
61471;SDS011;47337;54.068;12.114;2023-02-28T16:46:24;1.47;;;1.00;;
61471;SDS011;47337;54.068;12.114;2023-02-28T16:48:56;2.38;;;1.17;;
61471;SDS011;47337;54.068;12.114;2023-02-28T16:51:21;3.05;;;1.00;;
61471;SDS011;47337;54.068;12.114;2023-02-28T16:53:47;1.75;;;0.88;;
61471;SDS011;47337;54.068;12.114;2023-02-28T16:56:20;1.52;;;0.88;;
61471;SDS011;47337;54.068;12.114;2023-02-28T16:58:48;1.73;;;0.80;;
61471;SDS011;47337;54.068;12.114;2023-02-28T17:01:15;1.17;;;0.80;;
61471;SDS011;47337;54.068;12.114;2023-02-28T17:03:44;2.22;;;0.70;;
61471;SDS011;47337;54.068;12.114;2023-02-28T17:06:19;3.60;;;0.93;;
61471;SDS011;47337;54.068;12.114;2023-02-28T17:08:49;3.97;;;1.38;;
61471;SDS011;47337;54.068;12.114;2023-02-28T17:11:15;2.88;;;1.10;;
61471;SDS011;47337;54.068;12.114;2023-02-28T17:13:42;4.35;;;1.23;;
61471;SDS011;47337;54.068;12.114;2023-02-28T17:16:13;3.90;;;1.00;;
61471;SDS011;47337;54.068;12.114;2023-02-28T17:18:45;3.97;;;1.20;;
61471;SDS011;47337;54.068;12.114;2023-02-28T17:21:16;1.98;;;1.00;;
61471;SDS011;47337;54.068;12.114;2023-02-28T17:23:42;2.15;;;1.35;;
61471;SDS011;47337;54.068;12.114;2023-02-28T17:26:15;3.08;;;0.90;;
61471;SDS011;47337;54.068;12.114;2023-02-28T17:28:45;2.95;;;1.35;;
61471;SDS011;47337;54.068;12.114;2023-02-28T17:31:11;3.17;;;1.50;;
61471;SDS011;47337;54.068;12.114;2023-02-28T17:33:36;4.50;;;1.30;;
61471;SDS011;47337;54.068;12.114;2023-02-28T17:36:01;4.43;;;1.40;;